sensor_id;sensor_type;location;lat;lon;timestamp;P1;durP1;ratioP1;P2;durP2;ratioP2
8861;SDS011;4799;50.996;4.754;2024-03-25T00:01:30;22.47;;;12.93;;
8861;SDS011;4799;50.996;4.754;2024-03-25T00:03:56;22.90;;;14.67;;
8861;SDS011;4799;50.996;4.754;2024-03-25T00:06:22;20.03;;;12.87;;
8861;SDS011;4799;50.996;4.754;2024-03-25T00:08:47;22.57;;;13.43;;
8861;SDS011;4799;50.996;4.754;2024-03-25T00:11:13;24.57;;;14.87;;
8861;SDS011;4799;50.996;4.754;2024-03-25T00:13:39;23.27;;;15.00;;
8861;SDS011;4799;50.996;4.754;2024-03-25T00:16:05;21.43;;;15.37;;
8861;SDS011;4799;50.996;4.754;2024-03-25T00:18:31;22.20;;;14.90;;
8861;SDS011;4799;50.996;4.754;2024-03-25T00:20:57;23.33;;;15.07;;
8861;SDS011;4799;50.996;4.754;2024-03-25T00:23:23;23.53;;;14.47;;
8861;SDS011;4799;50.996;4.754;2024-03-25T00:25:49;20.80;;;14.00;;
8861;SDS011;4799;50.996;4.754;2024-03-25T00:28:15;19.63;;;14.43;;
8861;SDS011;4799;50.996;4.754;2024-03-25T00:30:41;23.57;;;14.90;;
8861;SDS011;4799;50.996;4.754;2024-03-25T00:33:06;25.00;;;15.57;;
8861;SDS011;4799;50.996;4.754;2024-03-25T00:35:32;26.33;;;15.53;;
8861;SDS011;4799;50.996;4.754;2024-03-25T00:37:58;22.07;;;15.23;;
8861;SDS011;4799;50.996;4.754;2024-03-25T00:40:25;24.00;;;15.57;;
8861;SDS011;4799;50.996;4.754;2024-03-25T00:42:51;20.27;;;13.67;;
8861;SDS011;4799;50.996;4.754;2024-03-25T00:45:17;23.37;;;15.20;;
8861;SDS011;4799;50.996;4.754;2024-03-25T00:47:42;22.20;;;14.60;;
8861;SDS011;4799;50.996;4.754;2024-03-25T00:50:08;20.57;;;12.87;;
8861;SDS011;4799;50.996;4.754;2024-03-25T00:52:34;22.13;;;13.33;;
8861;SDS011;4799;50.996;4.754;2024-03-25T00:55:00;20.33;;;13.87;;
8861;SDS011;4799;50.996;4.754;2024-03-25T00:57:26;18.57;;;13.30;;
8861;SDS011;4799;50.996;4.754;2024-03-25T00:59:52;18.90;;;12.13;;
8861;SDS011;4799;50.996;4.754;2024-03-25T01:02:17;20.07;;;12.80;;
8861;SDS011;4799;50.996;4.754;2024-03-25T01:04:43;18.00;;;12.30;;
8861;SDS011;4799;50.996;4.754;2024-03-25T01:07:09;18.70;;;12.57;;
8861;SDS011;4799;50.996;4.754;2024-03-25T01:09:34;15.07;;;11.07;;
8861;SDS011;4799;50.996;4.754;2024-03-25T01:12:00;15.77;;;11.40;;
8861;SDS011;4799;50.996;4.754;2024-03-25T01:14:26;18.37;;;12.40;;
8861;SDS011;4799;50.996;4.754;2024-03-25T01:16:52;17.63;;;12.40;;
8861;SDS011;4799;50.996;4.754;2024-03-25T01:19:18;17.97;;;12.00;;
8861;SDS011;4799;50.996;4.754;2024-03-25T01:21:46;21.50;;;12.40;;
8861;SDS011;4799;50.996;4.754;2024-03-25T01:24:11;14.53;;;11.60;;
8861;SDS011;4799;50.996;4.754;2024-03-25T01:26:37;17.47;;;11.50;;
8861;SDS011;4799;50.996;4.754;2024-03-25T01:29:03;16.93;;;12.13;;
8861;SDS011;4799;50.996;4.754;2024-03-25T01:31:28;14.10;;;10.50;;
8861;SDS011;4799;50.996;4.754;2024-03-25T01:33:54;18.53;;;11.20;;
8861;SDS011;4799;50.996;4.754;2024-03-25T01:36:20;15.27;;;10.70;;
8861;SDS011;4799;50.996;4.754;2024-03-25T01:38:46;14.23;;;10.67;;
8861;SDS011;4799;50.996;4.754;2024-03-25T01:41:12;17.43;;;11.43;;
8861;SDS011;4799;50.996;4.754;2024-03-25T01:43:40;14.87;;;10.60;;
8861;SDS011;4799;50.996;4.754;2024-03-25T01:46:05;17.17;;;11.70;;
8861;SDS011;4799;50.996;4.754;2024-03-25T01:48:32;15.53;;;10.77;;
8861;SDS011;4799;50.996;4.754;2024-03-25T01:50:58;16.90;;;11.27;;
8861;SDS011;4799;50.996;4.754;2024-03-25T01:53:27;18.47;;;11.90;;
8861;SDS011;4799;50.996;4.754;2024-03-25T01:55:54;15.90;;;11.23;;
8861;SDS011;4799;50.996;4.754;2024-03-25T01:58:22;14.80;;;10.40;;
8861;SDS011;4799;50.996;4.754;2024-03-25T02:00:48;21.70;;;13.13;;
8861;SDS011;4799;50.996;4.754;2024-03-25T02:03:16;21.53;;;11.40;;
8861;SDS011;4799;50.996;4.754;2024-03-25T02:05:42;21.23;;;12.93;;
8861;SDS011;4799;50.996;4.754;2024-03-25T02:08:08;17.87;;;11.90;;
8861;SDS011;4799;50.996;4.754;2024-03-25T02:10:35;16.73;;;11.50;;
8861;SDS011;4799;50.996;4.754;2024-03-25T02:13:02;19.40;;;11.80;;
8861;SDS011;4799;50.996;4.754;2024-03-25T02:15:28;17.07;;;11.97;;
8861;SDS011;4799;50.996;4.754;2024-03-25T02:17:54;19.37;;;12.20;;
8861;SDS011;4799;50.996;4.754;2024-03-25T02:20:20;17.93;;;11.70;;
8861;SDS011;4799;50.996;4.754;2024-03-25T02:22:46;16.97;;;11.93;;
8861;SDS011;4799;50.996;4.754;2024-03-25T02:25:11;16.87;;;11.97;;
8861;SDS011;4799;50.996;4.754;2024-03-25T02:27:41;17.13;;;12.40;;
8861;SDS011;4799;50.996;4.754;2024-03-25T02:30:10;16.50;;;12.40;;
8861;SDS011;4799;50.996;4.754;2024-03-25T02:32:38;20.20;;;14.47;;
8861;SDS011;4799;50.996;4.754;2024-03-25T02:35:09;20.00;;;14.07;;
8861;SDS011;4799;50.996;4.754;2024-03-25T02:37:38;19.73;;;14.00;;
8861;SDS011;4799;50.996;4.754;2024-03-25T02:40:06;22.53;;;14.30;;
8861;SDS011;4799;50.996;4.754;2024-03-25T02:42:34;20.43;;;13.87;;
8861;SDS011;4799;50.996;4.754;2024-03-25T02:45:01;18.47;;;13.13;;
8861;SDS011;4799;50.996;4.754;2024-03-25T02:47:26;22.73;;;14.33;;
8861;SDS011;4799;50.996;4.754;2024-03-25T02:49:52;21.50;;;13.90;;
8861;SDS011;4799;50.996;4.754;2024-03-25T02:52:18;19.13;;;13.80;;
8861;SDS011;4799;50.996;4.754;2024-03-25T02:54:44;18.83;;;12.83;;
8861;SDS011;4799;50.996;4.754;2024-03-25T02:57:11;18.43;;;13.87;;
8861;SDS011;4799;50.996;4.754;2024-03-25T02:59:36;18.33;;;14.10;;
8861;SDS011;4799;50.996;4.754;2024-03-25T03:02:02;17.73;;;13.90;;
8861;SDS011;4799;50.996;4.754;2024-03-25T03:04:28;17.83;;;14.43;;
8861;SDS011;4799;50.996;4.754;2024-03-25T03:06:53;20.17;;;14.70;;
8861;SDS011;4799;50.996;4.754;2024-03-25T03:09:19;19.47;;;15.53;;
8861;SDS011;4799;50.996;4.754;2024-03-25T03:11:45;19.67;;;14.50;;
8861;SDS011;4799;50.996;4.754;2024-03-25T03:14:10;18.70;;;13.87;;
8861;SDS011;4799;50.996;4.754;2024-03-25T03:16:36;17.70;;;14.57;;
8861;SDS011;4799;50.996;4.754;2024-03-25T03:19:02;20.00;;;15.03;;
8861;SDS011;4799;50.996;4.754;2024-03-25T03:21:27;19.43;;;14.53;;
8861;SDS011;4799;50.996;4.754;2024-03-25T03:23:55;20.83;;;14.60;;
8861;SDS011;4799;50.996;4.754;2024-03-25T03:26:21;22.90;;;15.23;;
8861;SDS011;4799;50.996;4.754;2024-03-25T03:28:51;18.50;;;14.63;;
8861;SDS011;4799;50.996;4.754;2024-03-25T03:31:20;21.67;;;15.00;;
8861;SDS011;4799;50.996;4.754;2024-03-25T03:33:48;23.73;;;15.27;;
8861;SDS011;4799;50.996;4.754;2024-03-25T03:36:18;28.67;;;17.67;;
8861;SDS011;4799;50.996;4.754;2024-03-25T03:38:45;22.73;;;15.27;;
8861;SDS011;4799;50.996;4.754;2024-03-25T03:41:11;25.03;;;17.03;;
8861;SDS011;4799;50.996;4.754;2024-03-25T03:43:37;23.53;;;16.80;;
8861;SDS011;4799;50.996;4.754;2024-03-25T03:46:03;22.77;;;16.63;;
8861;SDS011;4799;50.996;4.754;2024-03-25T03:48:29;23.70;;;16.93;;
8861;SDS011;4799;50.996;4.754;2024-03-25T03:50:55;22.87;;;17.37;;
8861;SDS011;4799;50.996;4.754;2024-03-25T03:53:22;25.97;;;18.60;;
8861;SDS011;4799;50.996;4.754;2024-03-25T03:55:57;28.20;;;18.13;;
8861;SDS011;4799;50.996;4.754;2024-03-25T03:58:28;25.83;;;16.97;;
8861;SDS011;4799;50.996;4.754;2024-03-25T04:00:54;25.97;;;17.87;;
8861;SDS011;4799;50.996;4.754;2024-03-25T04:03:19;31.07;;;20.50;;
8861;SDS011;4799;50.996;4.754;2024-03-25T04:05:45;31.60;;;19.53;;
8861;SDS011;4799;50.996;4.754;2024-03-25T04:08:11;39.37;;;23.77;;
8861;SDS011;4799;50.996;4.754;2024-03-25T04:10:37;35.17;;;22.43;;
8861;SDS011;4799;50.996;4.754;2024-03-25T04:13:04;40.30;;;22.43;;
8861;SDS011;4799;50.996;4.754;2024-03-25T04:15:33;32.97;;;19.83;;
8861;SDS011;4799;50.996;4.754;2024-03-25T04:18:00;30.43;;;20.20;;
8861;SDS011;4799;50.996;4.754;2024-03-25T04:20:29;36.83;;;21.97;;
8861;SDS011;4799;50.996;4.754;2024-03-25T04:22:55;38.27;;;22.30;;
8861;SDS011;4799;50.996;4.754;2024-03-25T04:25:21;35.20;;;21.60;;
8861;SDS011;4799;50.996;4.754;2024-03-25T04:27:47;38.13;;;23.47;;
8861;SDS011;4799;50.996;4.754;2024-03-25T04:30:13;41.00;;;24.67;;
8861;SDS011;4799;50.996;4.754;2024-03-25T04:32:39;39.90;;;24.13;;
8861;SDS011;4799;50.996;4.754;2024-03-25T04:35:06;48.77;;;25.63;;
8861;SDS011;4799;50.996;4.754;2024-03-25T04:37:32;39.63;;;23.90;;
8861;SDS011;4799;50.996;4.754;2024-03-25T04:39:59;44.77;;;25.77;;
8861;SDS011;4799;50.996;4.754;2024-03-25T04:42:25;52.10;;;27.20;;
8861;SDS011;4799;50.996;4.754;2024-03-25T04:44:51;48.63;;;28.23;;
8861;SDS011;4799;50.996;4.754;2024-03-25T04:47:17;53.23;;;29.57;;
8861;SDS011;4799;50.996;4.754;2024-03-25T04:49:46;57.50;;;28.37;;
8861;SDS011;4799;50.996;4.754;2024-03-25T04:52:12;54.67;;;28.73;;
8861;SDS011;4799;50.996;4.754;2024-03-25T04:54:38;51.17;;;27.93;;
8861;SDS011;4799;50.996;4.754;2024-03-25T04:57:04;56.73;;;28.50;;
8861;SDS011;4799;50.996;4.754;2024-03-25T04:59:31;54.67;;;30.13;;
8861;SDS011;4799;50.996;4.754;2024-03-25T05:01:57;53.00;;;29.13;;
8861;SDS011;4799;50.996;4.754;2024-03-25T05:04:23;56.60;;;28.73;;
8861;SDS011;4799;50.996;4.754;2024-03-25T05:06:49;51.07;;;27.80;;
8861;SDS011;4799;50.996;4.754;2024-03-25T05:09:15;51.77;;;29.07;;
8861;SDS011;4799;50.996;4.754;2024-03-25T05:11:41;51.90;;;28.33;;
8861;SDS011;4799;50.996;4.754;2024-03-25T05:14:07;56.07;;;30.17;;
8861;SDS011;4799;50.996;4.754;2024-03-25T05:16:33;63.57;;;31.43;;
8861;SDS011;4799;50.996;4.754;2024-03-25T05:18:59;61.87;;;30.70;;
8861;SDS011;4799;50.996;4.754;2024-03-25T05:21:24;52.67;;;28.60;;
8861;SDS011;4799;50.996;4.754;2024-03-25T05:23:50;65.77;;;31.53;;
8861;SDS011;4799;50.996;4.754;2024-03-25T05:26:16;51.70;;;28.57;;
8861;SDS011;4799;50.996;4.754;2024-03-25T05:28:41;64.20;;;31.13;;
8861;SDS011;4799;50.996;4.754;2024-03-25T05:31:07;61.67;;;31.13;;
8861;SDS011;4799;50.996;4.754;2024-03-25T05:33:34;66.47;;;31.23;;
8861;SDS011;4799;50.996;4.754;2024-03-25T05:36:00;72.13;;;31.17;;
8861;SDS011;4799;50.996;4.754;2024-03-25T05:38:27;76.80;;;33.80;;
8861;SDS011;4799;50.996;4.754;2024-03-25T05:40:53;60.43;;;31.20;;
8861;SDS011;4799;50.996;4.754;2024-03-25T05:43:19;71.43;;;31.93;;
8861;SDS011;4799;50.996;4.754;2024-03-25T05:45:51;65.13;;;31.60;;
8861;SDS011;4799;50.996;4.754;2024-03-25T05:48:21;70.70;;;33.00;;
8861;SDS011;4799;50.996;4.754;2024-03-25T05:51:00;60.90;;;29.37;;
8861;SDS011;4799;50.996;4.754;2024-03-25T05:53:27;76.60;;;33.97;;
8861;SDS011;4799;50.996;4.754;2024-03-25T05:55:53;70.47;;;34.03;;
8861;SDS011;4799;50.996;4.754;2024-03-25T05:58:18;91.43;;;37.00;;
8861;SDS011;4799;50.996;4.754;2024-03-25T06:00:48;64.53;;;33.13;;
8861;SDS011;4799;50.996;4.754;2024-03-25T06:03:15;88.43;;;37.40;;
8861;SDS011;4799;50.996;4.754;2024-03-25T06:05:42;75.10;;;35.17;;
8861;SDS011;4799;50.996;4.754;2024-03-25T06:08:08;79.17;;;35.77;;
8861;SDS011;4799;50.996;4.754;2024-03-25T06:10:41;76.40;;;34.63;;
8861;SDS011;4799;50.996;4.754;2024-03-25T06:13:07;90.83;;;37.13;;
8861;SDS011;4799;50.996;4.754;2024-03-25T06:15:32;77.07;;;36.20;;
8861;SDS011;4799;50.996;4.754;2024-03-25T06:17:58;72.03;;;36.30;;
8861;SDS011;4799;50.996;4.754;2024-03-25T06:20:24;87.70;;;38.37;;
8861;SDS011;4799;50.996;4.754;2024-03-25T06:22:49;78.77;;;36.70;;
8861;SDS011;4799;50.996;4.754;2024-03-25T06:25:16;78.37;;;34.97;;
8861;SDS011;4799;50.996;4.754;2024-03-25T06:27:42;86.80;;;37.43;;
8861;SDS011;4799;50.996;4.754;2024-03-25T06:30:09;86.60;;;37.13;;
8861;SDS011;4799;50.996;4.754;2024-03-25T06:32:54;85.67;;;39.17;;
8861;SDS011;4799;50.996;4.754;2024-03-25T06:35:38;76.37;;;35.00;;
8861;SDS011;4799;50.996;4.754;2024-03-25T06:38:04;99.20;;;38.53;;
8861;SDS011;4799;50.996;4.754;2024-03-25T06:40:29;84.43;;;37.10;;
8861;SDS011;4799;50.996;4.754;2024-03-25T06:42:56;80.00;;;35.03;;
8861;SDS011;4799;50.996;4.754;2024-03-25T06:45:22;78.53;;;35.93;;
8861;SDS011;4799;50.996;4.754;2024-03-25T06:47:48;100.60;;;38.33;;
8861;SDS011;4799;50.996;4.754;2024-03-25T06:50:14;84.83;;;36.77;;
8861;SDS011;4799;50.996;4.754;2024-03-25T06:52:40;82.80;;;36.93;;
8861;SDS011;4799;50.996;4.754;2024-03-25T06:55:06;68.63;;;34.07;;
8861;SDS011;4799;50.996;4.754;2024-03-25T06:57:32;75.80;;;35.63;;
8861;SDS011;4799;50.996;4.754;2024-03-25T06:59:58;83.20;;;35.83;;
8861;SDS011;4799;50.996;4.754;2024-03-25T07:02:24;70.33;;;33.30;;
8861;SDS011;4799;50.996;4.754;2024-03-25T07:04:49;78.40;;;33.60;;
8861;SDS011;4799;50.996;4.754;2024-03-25T07:07:15;61.30;;;31.00;;
8861;SDS011;4799;50.996;4.754;2024-03-25T07:09:41;62.93;;;31.30;;
8861;SDS011;4799;50.996;4.754;2024-03-25T07:12:06;65.10;;;29.90;;
8861;SDS011;4799;50.996;4.754;2024-03-25T07:14:32;62.33;;;29.63;;
8861;SDS011;4799;50.996;4.754;2024-03-25T07:16:58;60.10;;;29.50;;
8861;SDS011;4799;50.996;4.754;2024-03-25T07:19:24;56.47;;;29.03;;
8861;SDS011;4799;50.996;4.754;2024-03-25T07:21:49;46.67;;;25.23;;
8861;SDS011;4799;50.996;4.754;2024-03-25T07:24:15;58.13;;;28.43;;
8861;SDS011;4799;50.996;4.754;2024-03-25T07:26:41;59.00;;;29.20;;
8861;SDS011;4799;50.996;4.754;2024-03-25T07:29:06;57.20;;;29.03;;
8861;SDS011;4799;50.996;4.754;2024-03-25T07:31:32;53.13;;;26.73;;
8861;SDS011;4799;50.996;4.754;2024-03-25T07:33:58;59.43;;;28.73;;
8861;SDS011;4799;50.996;4.754;2024-03-25T07:36:24;54.77;;;28.03;;
8861;SDS011;4799;50.996;4.754;2024-03-25T07:38:49;56.03;;;27.20;;
8861;SDS011;4799;50.996;4.754;2024-03-25T07:41:15;49.43;;;26.57;;
8861;SDS011;4799;50.996;4.754;2024-03-25T07:43:41;51.70;;;27.20;;
8861;SDS011;4799;50.996;4.754;2024-03-25T07:46:06;44.67;;;26.13;;
8861;SDS011;4799;50.996;4.754;2024-03-25T07:48:32;48.60;;;26.27;;
8861;SDS011;4799;50.996;4.754;2024-03-25T07:50:58;43.43;;;23.83;;
8861;SDS011;4799;50.996;4.754;2024-03-25T07:53:25;41.97;;;24.23;;
8861;SDS011;4799;50.996;4.754;2024-03-25T07:55:50;45.90;;;23.83;;
8861;SDS011;4799;50.996;4.754;2024-03-25T07:58:16;39.53;;;23.33;;
8861;SDS011;4799;50.996;4.754;2024-03-25T08:00:42;36.33;;;22.70;;
8861;SDS011;4799;50.996;4.754;2024-03-25T08:03:07;38.63;;;22.03;;
8861;SDS011;4799;50.996;4.754;2024-03-25T08:05:33;32.93;;;20.13;;
8861;SDS011;4799;50.996;4.754;2024-03-25T08:07:59;36.43;;;21.50;;
8861;SDS011;4799;50.996;4.754;2024-03-25T08:10:25;36.57;;;21.83;;
8861;SDS011;4799;50.996;4.754;2024-03-25T08:12:50;33.97;;;19.80;;
8861;SDS011;4799;50.996;4.754;2024-03-25T08:15:16;33.77;;;19.93;;
8861;SDS011;4799;50.996;4.754;2024-03-25T08:17:42;34.30;;;21.13;;
8861;SDS011;4799;50.996;4.754;2024-03-25T08:20:08;37.20;;;21.17;;
8861;SDS011;4799;50.996;4.754;2024-03-25T08:22:34;36.50;;;21.80;;
8861;SDS011;4799;50.996;4.754;2024-03-25T08:25:00;30.77;;;18.37;;
8861;SDS011;4799;50.996;4.754;2024-03-25T08:27:26;29.27;;;18.73;;
8861;SDS011;4799;50.996;4.754;2024-03-25T08:29:51;28.13;;;17.33;;
8861;SDS011;4799;50.996;4.754;2024-03-25T08:32:19;28.30;;;17.60;;
8861;SDS011;4799;50.996;4.754;2024-03-25T08:34:45;31.17;;;17.77;;
8861;SDS011;4799;50.996;4.754;2024-03-25T08:37:10;27.23;;;17.50;;
8861;SDS011;4799;50.996;4.754;2024-03-25T08:39:37;28.90;;;17.80;;
8861;SDS011;4799;50.996;4.754;2024-03-25T08:42:02;28.53;;;16.47;;
8861;SDS011;4799;50.996;4.754;2024-03-25T08:44:28;26.93;;;16.17;;
8861;SDS011;4799;50.996;4.754;2024-03-25T08:46:54;26.47;;;15.23;;
8861;SDS011;4799;50.996;4.754;2024-03-25T08:49:20;26.10;;;14.70;;
8861;SDS011;4799;50.996;4.754;2024-03-25T08:51:45;26.80;;;14.70;;
8861;SDS011;4799;50.996;4.754;2024-03-25T08:54:12;21.80;;;14.90;;
8861;SDS011;4799;50.996;4.754;2024-03-25T08:56:38;19.57;;;12.57;;
8861;SDS011;4799;50.996;4.754;2024-03-25T08:59:04;21.83;;;12.40;;
8861;SDS011;4799;50.996;4.754;2024-03-25T09:01:29;23.30;;;13.83;;
8861;SDS011;4799;50.996;4.754;2024-03-25T09:03:55;24.30;;;13.03;;
8861;SDS011;4799;50.996;4.754;2024-03-25T09:06:21;20.60;;;12.43;;
8861;SDS011;4799;50.996;4.754;2024-03-25T09:08:48;18.03;;;12.03;;
8861;SDS011;4799;50.996;4.754;2024-03-25T09:11:32;16.77;;;11.80;;
8861;SDS011;4799;50.996;4.754;2024-03-25T09:13:58;17.30;;;11.40;;
8861;SDS011;4799;50.996;4.754;2024-03-25T09:16:23;19.23;;;11.30;;
8861;SDS011;4799;50.996;4.754;2024-03-25T09:18:49;16.77;;;10.60;;
8861;SDS011;4799;50.996;4.754;2024-03-25T09:21:15;17.63;;;9.77;;
8861;SDS011;4799;50.996;4.754;2024-03-25T09:23:40;18.53;;;10.47;;
8861;SDS011;4799;50.996;4.754;2024-03-25T09:26:06;15.70;;;10.97;;
8861;SDS011;4799;50.996;4.754;2024-03-25T09:28:32;17.20;;;10.73;;
8861;SDS011;4799;50.996;4.754;2024-03-25T09:30:57;14.33;;;9.90;;
8861;SDS011;4799;50.996;4.754;2024-03-25T09:33:23;13.37;;;8.23;;
8861;SDS011;4799;50.996;4.754;2024-03-25T09:35:50;14.47;;;9.23;;
8861;SDS011;4799;50.996;4.754;2024-03-25T09:38:16;15.47;;;8.50;;
8861;SDS011;4799;50.996;4.754;2024-03-25T09:40:41;11.47;;;8.17;;
8861;SDS011;4799;50.996;4.754;2024-03-25T09:43:12;13.57;;;7.93;;
8861;SDS011;4799;50.996;4.754;2024-03-25T09:45:45;15.23;;;9.07;;
8861;SDS011;4799;50.996;4.754;2024-03-25T09:48:14;15.13;;;9.47;;
8861;SDS011;4799;50.996;4.754;2024-03-25T09:50:42;12.47;;;7.80;;
8861;SDS011;4799;50.996;4.754;2024-03-25T09:53:09;11.67;;;8.03;;
8861;SDS011;4799;50.996;4.754;2024-03-25T09:55:34;10.30;;;7.03;;
8861;SDS011;4799;50.996;4.754;2024-03-25T09:58:00;10.27;;;7.50;;
8861;SDS011;4799;50.996;4.754;2024-03-25T10:00:28;10.13;;;7.20;;
8861;SDS011;4799;50.996;4.754;2024-03-25T10:02:55;8.47;;;6.30;;
8861;SDS011;4799;50.996;4.754;2024-03-25T10:05:20;13.93;;;7.50;;
8861;SDS011;4799;50.996;4.754;2024-03-25T10:07:46;9.90;;;6.50;;
8861;SDS011;4799;50.996;4.754;2024-03-25T10:10:12;12.77;;;7.43;;
8861;SDS011;4799;50.996;4.754;2024-03-25T10:12:38;10.07;;;7.00;;
8861;SDS011;4799;50.996;4.754;2024-03-25T10:15:06;9.07;;;6.00;;
8861;SDS011;4799;50.996;4.754;2024-03-25T10:17:32;9.43;;;4.90;;
8861;SDS011;4799;50.996;4.754;2024-03-25T10:19:57;7.27;;;5.80;;
8861;SDS011;4799;50.996;4.754;2024-03-25T10:22:23;8.90;;;4.33;;
8861;SDS011;4799;50.996;4.754;2024-03-25T10:24:49;7.00;;;4.60;;
8861;SDS011;4799;50.996;4.754;2024-03-25T10:27:19;6.77;;;4.00;;
8861;SDS011;4799;50.996;4.754;2024-03-25T10:29:46;8.13;;;4.57;;
8861;SDS011;4799;50.996;4.754;2024-03-25T10:32:13;7.37;;;4.40;;
8861;SDS011;4799;50.996;4.754;2024-03-25T10:34:40;7.30;;;4.43;;
8861;SDS011;4799;50.996;4.754;2024-03-25T10:37:08;5.70;;;3.87;;
8861;SDS011;4799;50.996;4.754;2024-03-25T10:39:36;6.83;;;3.70;;
8861;SDS011;4799;50.996;4.754;2024-03-25T10:42:08;8.70;;;4.77;;
8861;SDS011;4799;50.996;4.754;2024-03-25T10:44:38;6.27;;;4.47;;
8861;SDS011;4799;50.996;4.754;2024-03-25T10:47:04;10.70;;;5.00;;
8861;SDS011;4799;50.996;4.754;2024-03-25T10:52:13;8.40;;;4.53;;
8861;SDS011;4799;50.996;4.754;2024-03-25T10:54:40;7.57;;;3.90;;
8861;SDS011;4799;50.996;4.754;2024-03-25T10:57:07;8.33;;;4.20;;
8861;SDS011;4799;50.996;4.754;2024-03-25T10:59:35;7.17;;;4.30;;
8861;SDS011;4799;50.996;4.754;2024-03-25T11:02:09;5.53;;;3.63;;
8861;SDS011;4799;50.996;4.754;2024-03-25T11:04:36;7.57;;;3.90;;
8861;SDS011;4799;50.996;4.754;2024-03-25T11:07:24;8.07;;;4.63;;
8861;SDS011;4799;50.996;4.754;2024-03-25T11:10:04;9.27;;;4.37;;
8861;SDS011;4799;50.996;4.754;2024-03-25T11:12:35;7.33;;;3.90;;
8861;SDS011;4799;50.996;4.754;2024-03-25T11:15:02;5.80;;;4.07;;
8861;SDS011;4799;50.996;4.754;2024-03-25T11:17:29;6.43;;;3.73;;
8861;SDS011;4799;50.996;4.754;2024-03-25T11:20:05;5.47;;;3.87;;
8861;SDS011;4799;50.996;4.754;2024-03-25T11:22:35;7.20;;;3.30;;
8861;SDS011;4799;50.996;4.754;2024-03-25T11:25:05;7.80;;;2.83;;
8861;SDS011;4799;50.996;4.754;2024-03-25T11:27:32;6.80;;;3.10;;
8861;SDS011;4799;50.996;4.754;2024-03-25T11:30:01;6.03;;;3.33;;
8861;SDS011;4799;50.996;4.754;2024-03-25T11:32:27;6.27;;;3.43;;
8861;SDS011;4799;50.996;4.754;2024-03-25T11:34:53;7.47;;;3.63;;
8861;SDS011;4799;50.996;4.754;2024-03-25T11:37:19;6.33;;;3.40;;
8861;SDS011;4799;50.996;4.754;2024-03-25T11:39:45;5.00;;;2.97;;
8861;SDS011;4799;50.996;4.754;2024-03-25T11:42:12;4.60;;;3.13;;
8861;SDS011;4799;50.996;4.754;2024-03-25T11:44:38;4.73;;;2.87;;
8861;SDS011;4799;50.996;4.754;2024-03-25T11:47:06;5.13;;;3.00;;
8861;SDS011;4799;50.996;4.754;2024-03-25T11:49:36;6.03;;;2.90;;
8861;SDS011;4799;50.996;4.754;2024-03-25T11:52:06;3.37;;;2.23;;
8861;SDS011;4799;50.996;4.754;2024-03-25T11:54:32;5.33;;;2.60;;
8861;SDS011;4799;50.996;4.754;2024-03-25T11:56:58;6.03;;;2.77;;
8861;SDS011;4799;50.996;4.754;2024-03-25T11:59:24;4.57;;;2.87;;
8861;SDS011;4799;50.996;4.754;2024-03-25T12:01:50;4.93;;;2.50;;
8861;SDS011;4799;50.996;4.754;2024-03-25T12:04:16;3.93;;;2.80;;
8861;SDS011;4799;50.996;4.754;2024-03-25T12:06:43;6.27;;;2.90;;
8861;SDS011;4799;50.996;4.754;2024-03-25T12:09:13;6.23;;;2.87;;
8861;SDS011;4799;50.996;4.754;2024-03-25T12:12:01;6.53;;;3.03;;
8861;SDS011;4799;50.996;4.754;2024-03-25T12:14:28;5.17;;;2.80;;
8861;SDS011;4799;50.996;4.754;2024-03-25T12:16:55;7.03;;;2.50;;
8861;SDS011;4799;50.996;4.754;2024-03-25T12:19:20;5.23;;;2.80;;
8861;SDS011;4799;50.996;4.754;2024-03-25T12:21:50;5.17;;;2.90;;
8861;SDS011;4799;50.996;4.754;2024-03-25T12:24:15;5.57;;;2.90;;
8861;SDS011;4799;50.996;4.754;2024-03-25T12:26:43;5.27;;;2.83;;
8861;SDS011;4799;50.996;4.754;2024-03-25T12:29:09;5.40;;;2.90;;
8861;SDS011;4799;50.996;4.754;2024-03-25T12:31:34;5.83;;;2.40;;
8861;SDS011;4799;50.996;4.754;2024-03-25T12:34:00;2.73;;;2.10;;
8861;SDS011;4799;50.996;4.754;2024-03-25T12:36:26;4.20;;;2.23;;
8861;SDS011;4799;50.996;4.754;2024-03-25T12:38:54;5.03;;;3.00;;
8861;SDS011;4799;50.996;4.754;2024-03-25T12:41:24;5.47;;;2.50;;
8861;SDS011;4799;50.996;4.754;2024-03-25T12:43:50;3.80;;;2.00;;
8861;SDS011;4799;50.996;4.754;2024-03-25T12:46:16;4.20;;;2.00;;
8861;SDS011;4799;50.996;4.754;2024-03-25T12:48:42;2.53;;;1.93;;
8861;SDS011;4799;50.996;4.754;2024-03-25T12:51:12;3.33;;;2.10;;
8861;SDS011;4799;50.996;4.754;2024-03-25T12:53:39;4.20;;;2.00;;
8861;SDS011;4799;50.996;4.754;2024-03-25T12:56:05;3.10;;;1.93;;
8861;SDS011;4799;50.996;4.754;2024-03-25T12:58:31;3.50;;;2.10;;
8861;SDS011;4799;50.996;4.754;2024-03-25T13:00:57;3.20;;;2.10;;
8861;SDS011;4799;50.996;4.754;2024-03-25T13:03:23;6.53;;;2.40;;
8861;SDS011;4799;50.996;4.754;2024-03-25T13:05:49;3.20;;;2.00;;
8861;SDS011;4799;50.996;4.754;2024-03-25T13:08:15;4.60;;;2.23;;
8861;SDS011;4799;50.996;4.754;2024-03-25T13:10:42;5.13;;;2.30;;
8861;SDS011;4799;50.996;4.754;2024-03-25T13:13:08;3.53;;;1.90;;
8861;SDS011;4799;50.996;4.754;2024-03-25T13:15:34;3.53;;;2.00;;
8861;SDS011;4799;50.996;4.754;2024-03-25T13:18:00;3.83;;;2.10;;
8861;SDS011;4799;50.996;4.754;2024-03-25T13:20:26;5.03;;;2.30;;
8861;SDS011;4799;50.996;4.754;2024-03-25T13:22:53;3.13;;;2.10;;
8861;SDS011;4799;50.996;4.754;2024-03-25T13:25:24;4.87;;;2.67;;
8861;SDS011;4799;50.996;4.754;2024-03-25T13:27:50;3.37;;;2.20;;
8861;SDS011;4799;50.996;4.754;2024-03-25T13:30:16;4.20;;;2.23;;
8861;SDS011;4799;50.996;4.754;2024-03-25T13:32:41;4.40;;;2.30;;
8861;SDS011;4799;50.996;4.754;2024-03-25T13:35:07;3.93;;;2.10;;
8861;SDS011;4799;50.996;4.754;2024-03-25T13:37:33;2.63;;;2.00;;
8861;SDS011;4799;50.996;4.754;2024-03-25T13:39:59;3.20;;;2.10;;
8861;SDS011;4799;50.996;4.754;2024-03-25T13:42:24;3.80;;;2.07;;
8861;SDS011;4799;50.996;4.754;2024-03-25T13:44:50;4.03;;;2.13;;
8861;SDS011;4799;50.996;4.754;2024-03-25T13:47:16;3.63;;;2.17;;
8861;SDS011;4799;50.996;4.754;2024-03-25T13:49:41;2.93;;;2.03;;
8861;SDS011;4799;50.996;4.754;2024-03-25T13:52:07;3.97;;;2.07;;
8861;SDS011;4799;50.996;4.754;2024-03-25T13:54:33;4.00;;;2.00;;
8861;SDS011;4799;50.996;4.754;2024-03-25T13:56:58;3.60;;;2.10;;
8861;SDS011;4799;50.996;4.754;2024-03-25T13:59:24;3.83;;;2.10;;
8861;SDS011;4799;50.996;4.754;2024-03-25T14:01:50;3.53;;;2.40;;
8861;SDS011;4799;50.996;4.754;2024-03-25T14:04:19;3.67;;;2.10;;
8861;SDS011;4799;50.996;4.754;2024-03-25T14:06:45;4.07;;;2.30;;
8861;SDS011;4799;50.996;4.754;2024-03-25T14:09:26;3.10;;;2.10;;
8861;SDS011;4799;50.996;4.754;2024-03-25T14:11:52;3.27;;;2.13;;
8861;SDS011;4799;50.996;4.754;2024-03-25T14:14:18;3.93;;;2.10;;
8861;SDS011;4799;50.996;4.754;2024-03-25T14:16:43;4.63;;;2.47;;
8861;SDS011;4799;50.996;4.754;2024-03-25T14:19:09;7.03;;;2.50;;
8861;SDS011;4799;50.996;4.754;2024-03-25T14:21:35;4.33;;;2.53;;
8861;SDS011;4799;50.996;4.754;2024-03-25T14:24:01;2.50;;;2.30;;
8861;SDS011;4799;50.996;4.754;2024-03-25T14:26:27;4.67;;;2.50;;
8861;SDS011;4799;50.996;4.754;2024-03-25T14:28:53;4.67;;;2.30;;
8861;SDS011;4799;50.996;4.754;2024-03-25T14:31:19;5.97;;;2.30;;
8861;SDS011;4799;50.996;4.754;2024-03-25T14:33:44;3.43;;;2.20;;
8861;SDS011;4799;50.996;4.754;2024-03-25T14:36:10;3.43;;;2.20;;
8861;SDS011;4799;50.996;4.754;2024-03-25T14:38:36;4.37;;;2.23;;
8861;SDS011;4799;50.996;4.754;2024-03-25T14:41:04;3.00;;;2.07;;
8861;SDS011;4799;50.996;4.754;2024-03-25T14:43:30;3.60;;;2.30;;
8861;SDS011;4799;50.996;4.754;2024-03-25T14:45:56;2.57;;;2.13;;
8861;SDS011;4799;50.996;4.754;2024-03-25T14:48:21;3.27;;;1.80;;
8861;SDS011;4799;50.996;4.754;2024-03-25T14:50:47;4.20;;;2.30;;
8861;SDS011;4799;50.996;4.754;2024-03-25T14:53:13;4.97;;;2.47;;
8861;SDS011;4799;50.996;4.754;2024-03-25T14:55:39;2.50;;;1.67;;
8861;SDS011;4799;50.996;4.754;2024-03-25T14:58:06;2.73;;;1.87;;